sensor_id;sensor_type;location;lat;lon;timestamp;pressure;altitude;pressure_sealevel;temperature;humidity
37904;BME280;23738;50.422;18.758;2022-07-23T00:01:52;98562.72;;;19.61;59.90
37904;BME280;23738;50.422;18.758;2022-07-23T00:04:18;98558.11;;;19.56;59.95
37904;BME280;23738;50.422;18.758;2022-07-23T00:06:43;98555.94;;;19.51;60.12
37904;BME280;23738;50.422;18.758;2022-07-23T00:09:09;98562.35;;;19.47;60.11
37904;BME280;23738;50.422;18.758;2022-07-23T00:11:35;98562.27;;;19.42;60.03
37904;BME280;23738;50.422;18.758;2022-07-23T00:14:01;98571.36;;;19.38;60.03
37904;BME280;23738;50.422;18.758;2022-07-23T00:16:26;98560.33;;;19.35;60.12
37904;BME280;23738;50.422;18.758;2022-07-23T00:18:52;98563.01;;;19.35;60.42
37904;BME280;23738;50.422;18.758;2022-07-23T00:21:18;98569.70;;;19.35;60.49
37904;BME280;23738;50.422;18.758;2022-07-23T00:23:44;98564.88;;;19.34;60.37
37904;BME280;23738;50.422;18.758;2022-07-23T00:26:09;98564.31;;;19.32;60.29
37904;BME280;23738;50.422;18.758;2022-07-23T00:28:35;98562.45;;;19.30;60.20
37904;BME280;23738;50.422;18.758;2022-07-23T00:31:01;98554.91;;;19.27;60.20
37904;BME280;23738;50.422;18.758;2022-07-23T00:33:27;98560.23;;;19.25;60.20
37904;BME280;23738;50.422;18.758;2022-07-23T00:35:52;98553.22;;;19.19;60.21
37904;BME280;23738;50.422;18.758;2022-07-23T00:38:18;98551.85;;;19.16;60.67
37904;BME280;23738;50.422;18.758;2022-07-23T00:40:44;98557.45;;;19.12;60.72
37904;BME280;23738;50.422;18.758;2022-07-23T00:43:10;98555.80;;;19.06;60.80
37904;BME280;23738;50.422;18.758;2022-07-23T00:45:36;98560.06;;;19.04;61.06
37904;BME280;23738;50.422;18.758;2022-07-23T00:48:02;98554.70;;;19.04;61.09
37904;BME280;23738;50.422;18.758;2022-07-23T00:50:28;98559.53;;;19.05;60.98
37904;BME280;23738;50.422;18.758;2022-07-23T00:52:54;98558.16;;;19.02;60.95
37904;BME280;23738;50.422;18.758;2022-07-23T00:55:21;98563.48;;;19.00;60.97
37904;BME280;23738;50.422;18.758;2022-07-23T00:57:47;98551.43;;;18.97;60.92
37904;BME280;23738;50.422;18.758;2022-07-23T01:00:14;98554.03;;;18.92;60.88
37904;BME280;23738;50.422;18.758;2022-07-23T01:02:41;98551.07;;;18.89;60.98
37904;BME280;23738;50.422;18.758;2022-07-23T01:05:08;98552.61;;;18.82;60.98
37904;BME280;23738;50.422;18.758;2022-07-23T01:07:35;98552.83;;;18.78;61.01
37904;BME280;23738;50.422;18.758;2022-07-23T01:10:02;98553.03;;;18.71;61.08
37904;BME280;23738;50.422;18.758;2022-07-23T01:12:28;98544.67;;;18.65;61.13
37904;BME280;23738;50.422;18.758;2022-07-23T01:14:55;98543.58;;;18.64;61.49
37904;BME280;23738;50.422;18.758;2022-07-23T01:17:23;98538.23;;;18.64;61.48
37904;BME280;23738;50.422;18.758;2022-07-23T01:19:49;98544.64;;;18.63;61.41
37904;BME280;23738;50.422;18.758;2022-07-23T01:22:19;98549.70;;;18.62;61.35
37904;BME280;23738;50.422;18.758;2022-07-23T01:24:46;98538.19;;;18.59;61.35
37904;BME280;23738;50.422;18.758;2022-07-23T01:27:12;98537.30;;;18.56;61.39
37904;BME280;23738;50.422;18.758;2022-07-23T01:29:38;98538.84;;;18.52;61.44
37904;BME280;23738;50.422;18.758;2022-07-23T01:32:05;98534.30;;;18.50;61.47
37904;BME280;23738;50.422;18.758;2022-07-23T01:34:31;98528.10;;;18.47;61.49
37904;BME280;23738;50.422;18.758;2022-07-23T01:36:57;98533.41;;;18.42;61.54
37904;BME280;23738;50.422;18.758;2022-07-23T01:39:23;98535.47;;;18.37;61.54
37904;BME280;23738;50.422;18.758;2022-07-23T01:41:49;98538.91;;;18.32;61.64
37904;BME280;23738;50.422;18.758;2022-07-23T01:44:15;98541.30;;;18.31;61.98
37904;BME280;23738;50.422;18.758;2022-07-23T01:46:41;98539.67;;;18.30;62.08
37904;BME280;23738;50.422;18.758;2022-07-23T01:49:06;98542.11;;;18.32;62.04
37904;BME280;23738;50.422;18.758;2022-07-23T01:51:32;98537.00;;;18.30;61.94
37904;BME280;23738;50.422;18.758;2022-07-23T01:53:58;98541.53;;;18.27;62.00
37904;BME280;23738;50.422;18.758;2022-07-23T01:56:24;98538.57;;;18.26;61.98
37904;BME280;23738;50.422;18.758;2022-07-23T01:58:50;98537.19;;;18.24;62.00
37904;BME280;23738;50.422;18.758;2022-07-23T02:01:16;98534.99;;;18.18;61.96
37904;BME280;23738;50.422;18.758;2022-07-23T02:03:41;98536.24;;;18.13;62.00
37904;BME280;23738;50.422;18.758;2022-07-23T02:06:07;98535.95;;;18.10;62.06
37904;BME280;23738;50.422;18.758;2022-07-23T02:08:33;98537.23;;;18.07;62.09
37904;BME280;23738;50.422;18.758;2022-07-23T02:10:59;98538.82;;;18.06;62.42
37904;BME280;23738;50.422;18.758;2022-07-23T02:13:25;98534.00;;;18.05;62.49
37904;BME280;23738;50.422;18.758;2022-07-23T02:15:50;98539.63;;;18.06;62.42
37904;BME280;23738;50.422;18.758;2022-07-23T02:18:16;98539.88;;;18.05;62.43
37904;BME280;23738;50.422;18.758;2022-07-23T02:20:42;98543.64;;;18.06;62.50
37904;BME280;23738;50.422;18.758;2022-07-23T02:23:10;98549.75;;;18.04;62.47
37904;BME280;23738;50.422;18.758;2022-07-23T02:25:36;98540.34;;;17.99;62.54
37904;BME280;23738;50.422;18.758;2022-07-23T02:28:02;98533.09;;;17.97;62.60
37904;BME280;23738;50.422;18.758;2022-07-23T02:30:29;98538.95;;;17.94;62.70
37904;BME280;23738;50.422;18.758;2022-07-23T02:32:55;98536.47;;;17.90;62.84
37904;BME280;23738;50.422;18.758;2022-07-23T02:35:21;98532.22;;;17.91;63.06
37904;BME280;23738;50.422;18.758;2022-07-23T02:37:47;98533.03;;;17.92;63.08
37904;BME280;23738;50.422;18.758;2022-07-23T02:40:12;98531.45;;;17.93;62.99
37904;BME280;23738;50.422;18.758;2022-07-23T02:42:38;98536.56;;;17.95;62.86
37904;BME280;23738;50.422;18.758;2022-07-23T02:45:05;98533.08;;;17.94;62.91
37904;BME280;23738;50.422;18.758;2022-07-23T02:47:32;98536.80;;;17.93;62.89
37904;BME280;23738;50.422;18.758;2022-07-23T02:49:58;98531.94;;;17.90;62.81
37904;BME280;23738;50.422;18.758;2022-07-23T02:52:23;98534.31;;;17.87;62.79
37904;BME280;23738;50.422;18.758;2022-07-23T02:54:49;98533.41;;;17.81;62.85
37904;BME280;23738;50.422;18.758;2022-07-23T02:57:15;98528.53;;;17.76;62.90
37904;BME280;23738;50.422;18.758;2022-07-23T02:59:41;98525.27;;;17.71;63.02
37904;BME280;23738;50.422;18.758;2022-07-23T03:02:07;98523.66;;;17.73;63.25
37904;BME280;23738;50.422;18.758;2022-07-23T03:04:32;98520.75;;;17.74;63.33
37904;BME280;23738;50.422;18.758;2022-07-23T03:06:59;98530.38;;;17.75;63.34
37904;BME280;23738;50.422;18.758;2022-07-23T03:09:24;98534.09;;;17.72;63.34
37904;BME280;23738;50.422;18.758;2022-07-23T03:11:50;98539.69;;;17.73;63.26
37904;BME280;23738;50.422;18.758;2022-07-23T03:14:16;98539.91;;;17.69;63.33
37904;BME280;23738;50.422;18.758;2022-07-23T03:16:42;98541.77;;;17.68;63.34
37904;BME280;23738;50.422;18.758;2022-07-23T03:19:08;98536.09;;;17.65;63.32
37904;BME280;23738;50.422;18.758;2022-07-23T03:21:34;98525.68;;;17.63;63.31
37904;BME280;23738;50.422;18.758;2022-07-23T03:24:00;98527.55;;;17.63;63.37
37904;BME280;23738;50.422;18.758;2022-07-23T03:26:29;98524.59;;;17.64;63.64
37904;BME280;23738;50.422;18.758;2022-07-23T03:28:55;98527.32;;;17.67;63.69
37904;BME280;23738;50.422;18.758;2022-07-23T03:31:21;98522.79;;;17.67;63.66
37904;BME280;23738;50.422;18.758;2022-07-23T03:33:47;98528.46;;;17.71;63.78
37904;BME280;23738;50.422;18.758;2022-07-23T03:36:12;98522.33;;;17.73;63.78
37904;BME280;23738;50.422;18.758;2022-07-23T03:38:38;98524.74;;;17.72;63.63
37904;BME280;23738;50.422;18.758;2022-07-23T03:41:04;98526.08;;;17.72;63.64
37904;BME280;23738;50.422;18.758;2022-07-23T03:43:30;98531.13;;;17.71;63.61
37904;BME280;23738;50.422;18.758;2022-07-23T03:45:56;98526.03;;;17.69;63.86
37904;BME280;23738;50.422;18.758;2022-07-23T03:48:21;98527.12;;;17.71;63.99
37904;BME280;23738;50.422;18.758;2022-07-23T03:50:47;98524.52;;;17.76;64.33
37904;BME280;23738;50.422;18.758;2022-07-23T03:53:13;98533.93;;;17.81;64.34
37904;BME280;23738;50.422;18.758;2022-07-23T03:55:38;98536.17;;;17.86;64.20
37904;BME280;23738;50.422;18.758;2022-07-23T03:58:04;98534.08;;;17.91;64.04
37904;BME280;23738;50.422;18.758;2022-07-23T04:00:30;98536.80;;;17.93;63.92
37904;BME280;23738;50.422;18.758;2022-07-23T04:02:56;98530.41;;;17.97;63.95
37904;BME280;23738;50.422;18.758;2022-07-23T04:05:22;98531.03;;;18.02;63.96
37904;BME280;23738;50.422;18.758;2022-07-23T04:07:48;98540.68;;;18.05;64.19
37904;BME280;23738;50.422;18.758;2022-07-23T04:10:13;98532.47;;;18.09;64.38
37904;BME280;23738;50.422;18.758;2022-07-23T04:12:39;98530.70;;;18.17;64.67
37904;BME280;23738;50.422;18.758;2022-07-23T04:15:07;98526.82;;;18.27;64.78
37904;BME280;23738;50.422;18.758;2022-07-23T04:17:34;98526.92;;;18.38;64.98
37904;BME280;23738;50.422;18.758;2022-07-23T04:19:59;98529.72;;;18.48;65.23
37904;BME280;23738;50.422;18.758;2022-07-23T04:22:25;98524.25;;;18.57;65.44
37904;BME280;23738;50.422;18.758;2022-07-23T04:24:51;98529.19;;;18.67;65.58
37904;BME280;23738;50.422;18.758;2022-07-23T04:27:17;98522.86;;;18.79;66.03
37904;BME280;23738;50.422;18.758;2022-07-23T04:29:43;98530.47;;;18.89;66.34
37904;BME280;23738;50.422;18.758;2022-07-23T04:32:09;98526.56;;;18.99;66.35
37904;BME280;23738;50.422;18.758;2022-07-23T04:34:34;98528.81;;;19.13;66.45
37904;BME280;23738;50.422;18.758;2022-07-23T04:37:01;98528.63;;;19.22;66.59
37904;BME280;23738;50.422;18.758;2022-07-23T04:39:27;98522.80;;;19.30;66.77
37904;BME280;23738;50.422;18.758;2022-07-23T04:41:52;98522.86;;;19.37;66.77
37904;BME280;23738;50.422;18.758;2022-07-23T04:44:18;98520.75;;;19.39;66.96
37904;BME280;23738;50.422;18.758;2022-07-23T04:46:44;98525.88;;;19.46;67.32
37904;BME280;23738;50.422;18.758;2022-07-23T04:49:09;98526.02;;;19.61;67.75
37904;BME280;23738;50.422;18.758;2022-07-23T04:51:35;98520.78;;;19.79;67.77
37904;BME280;23738;50.422;18.758;2022-07-23T04:54:01;98512.81;;;19.97;67.77
37904;BME280;23738;50.422;18.758;2022-07-23T04:56:27;98515.88;;;20.18;67.65
37904;BME280;23738;50.422;18.758;2022-07-23T04:58:53;98510.64;;;20.41;67.72
37904;BME280;23738;50.422;18.758;2022-07-23T05:01:19;98512.87;;;20.67;67.89
37904;BME280;23738;50.422;18.758;2022-07-23T05:03:44;98511.30;;;20.96;68.08
37904;BME280;23738;50.422;18.758;2022-07-23T05:06:10;98511.62;;;21.22;67.94
37904;BME280;23738;50.422;18.758;2022-07-23T05:08:36;98513.20;;;21.49;67.74
37904;BME280;23738;50.422;18.758;2022-07-23T05:11:02;98510.24;;;21.70;67.62
37904;BME280;23738;50.422;18.758;2022-07-23T05:13:27;98510.19;;;21.93;67.52
37904;BME280;23738;50.422;18.758;2022-07-23T05:15:53;98514.71;;;22.18;67.49
37904;BME280;23738;50.422;18.758;2022-07-23T05:18:19;98514.04;;;22.44;67.30
37904;BME280;23738;50.422;18.758;2022-07-23T05:20:45;98510.95;;;22.68;67.13
37904;BME280;23738;50.422;18.758;2022-07-23T05:23:10;98508.72;;;22.91;66.81
37904;BME280;23738;50.422;18.758;2022-07-23T05:25:36;98506.35;;;23.15;66.35
37904;BME280;23738;50.422;18.758;2022-07-23T05:28:02;98509.12;;;23.39;66.16
37904;BME280;23738;50.422;18.758;2022-07-23T05:30:28;98503.03;;;23.62;65.57
37904;BME280;23738;50.422;18.758;2022-07-23T05:32:54;98501.92;;;23.90;65.33
37904;BME280;23738;50.422;18.758;2022-07-23T05:35:20;98502.19;;;24.15;64.56
37904;BME280;23738;50.422;18.758;2022-07-23T05:37:46;98494.89;;;24.39;64.32
37904;BME280;23738;50.422;18.758;2022-07-23T05:40:12;98491.86;;;24.64;63.70
37904;BME280;23738;50.422;18.758;2022-07-23T05:42:40;98492.70;;;24.81;63.51
37904;BME280;23738;50.422;18.758;2022-07-23T05:45:08;98485.69;;;24.99;63.41
37904;BME280;23738;50.422;18.758;2022-07-23T05:47:48;98487.02;;;25.18;63.11
37904;BME280;23738;50.422;18.758;2022-07-23T05:50:15;98481.32;;;25.35;63.02
37904;BME280;23738;50.422;18.758;2022-07-23T05:52:41;98476.55;;;25.46;63.16
37904;BME280;23738;50.422;18.758;2022-07-23T05:55:09;98467.13;;;25.57;63.18
37904;BME280;23738;50.422;18.758;2022-07-23T05:57:36;98460.52;;;25.79;63.03
37904;BME280;23738;50.422;18.758;2022-07-23T06:00:04;98455.23;;;26.02;62.04
37904;BME280;23738;50.422;18.758;2022-07-23T06:02:31;98462.53;;;26.28;61.62
37904;BME280;23738;50.422;18.758;2022-07-23T06:04:57;98458.43;;;26.56;60.68
37904;BME280;23738;50.422;18.758;2022-07-23T06:07:23;98451.63;;;26.81;60.05
37904;BME280;23738;50.422;18.758;2022-07-23T06:09:48;98442.23;;;27.00;59.19
37904;BME280;23738;50.422;18.758;2022-07-23T06:12:18;98441.23;;;27.19;58.66
37904;BME280;23738;50.422;18.758;2022-07-23T06:14:44;98441.03;;;27.37;58.41
37904;BME280;23738;50.422;18.758;2022-07-23T06:17:10;98431.14;;;27.53;57.56
37904;BME280;23738;50.422;18.758;2022-07-23T06:19:36;98440.50;;;27.69;56.98
37904;BME280;23738;50.422;18.758;2022-07-23T06:22:02;98440.11;;;27.93;56.65
37904;BME280;23738;50.422;18.758;2022-07-23T06:24:28;98435.09;;;28.17;56.40
37904;BME280;23738;50.422;18.758;2022-07-23T06:26:54;98436.46;;;28.43;55.35
37904;BME280;23738;50.422;18.758;2022-07-23T06:29:20;98436.34;;;28.57;54.49
37904;BME280;23738;50.422;18.758;2022-07-23T06:31:45;98437.67;;;28.74;53.93
37904;BME280;23738;50.422;18.758;2022-07-23T06:34:11;98434.03;;;28.96;53.92
37904;BME280;23738;50.422;18.758;2022-07-23T06:36:37;98444.70;;;29.18;52.83
37904;BME280;23738;50.422;18.758;2022-07-23T06:39:03;98443.06;;;29.34;52.88
37904;BME280;23738;50.422;18.758;2022-07-23T06:41:28;98440.22;;;29.54;51.69
37904;BME280;23738;50.422;18.758;2022-07-23T06:43:54;98439.36;;;29.71;51.08
37904;BME280;23738;50.422;18.758;2022-07-23T06:46:20;98439.05;;;29.87;50.73
37904;BME280;23738;50.422;18.758;2022-07-23T06:48:46;98439.44;;;30.00;49.83
37904;BME280;23738;50.422;18.758;2022-07-23T06:51:12;98434.54;;;30.14;48.90
37904;BME280;23738;50.422;18.758;2022-07-23T06:53:38;98441.28;;;30.37;49.03
37904;BME280;23738;50.422;18.758;2022-07-23T06:56:04;98444.15;;;30.56;48.39
37904;BME280;23738;50.422;18.758;2022-07-23T06:58:29;98443.56;;;30.77;48.00
37904;BME280;23738;50.422;18.758;2022-07-23T07:00:55;98449.34;;;30.96;47.00
37904;BME280;23738;50.422;18.758;2022-07-23T07:03:22;98434.27;;;31.05;46.30
37904;BME280;23738;50.422;18.758;2022-07-23T07:05:48;98441.14;;;31.17;45.69
37904;BME280;23738;50.422;18.758;2022-07-23T07:08:15;98434.23;;;31.26;45.20
37904;BME280;23738;50.422;18.758;2022-07-23T07:10:41;98438.24;;;31.40;44.84
37904;BME280;23738;50.422;18.758;2022-07-23T07:13:06;98438.48;;;31.53;44.89
37904;BME280;23738;50.422;18.758;2022-07-23T07:15:32;98452.66;;;31.74;44.32
37904;BME280;23738;50.422;18.758;2022-07-23T07:17:58;98460.07;;;31.91;43.62
37904;BME280;23738;50.422;18.758;2022-07-23T07:20:24;98462.45;;;32.05;43.14
37904;BME280;23738;50.422;18.758;2022-07-23T07:22:50;98470.09;;;32.18;43.28
37904;BME280;23738;50.422;18.758;2022-07-23T07:25:15;98467.93;;;32.29;42.43
37904;BME280;23738;50.422;18.758;2022-07-23T07:27:41;98452.76;;;32.44;42.52
37904;BME280;23738;50.422;18.758;2022-07-23T07:30:10;98439.64;;;32.56;41.95
37904;BME280;23738;50.422;18.758;2022-07-23T07:32:36;98435.19;;;32.70;42.17
37904;BME280;23738;50.422;18.758;2022-07-23T07:35:06;98449.68;;;32.92;41.30
37904;BME280;23738;50.422;18.758;2022-07-23T07:37:32;98444.74;;;33.03;40.85
37904;BME280;23738;50.422;18.758;2022-07-23T07:39:58;98445.50;;;33.10;39.77
37904;BME280;23738;50.422;18.758;2022-07-23T07:42:24;98453.22;;;33.20;39.73
37904;BME280;23738;50.422;18.758;2022-07-23T07:44:50;98452.86;;;33.28;39.20
37904;BME280;23738;50.422;18.758;2022-07-23T07:47:16;98449.75;;;33.29;38.91
37904;BME280;23738;50.422;18.758;2022-07-23T07:49:42;98453.92;;;33.39;39.27
37904;BME280;23738;50.422;18.758;2022-07-23T07:52:09;98450.67;;;33.49;38.44
37904;BME280;23738;50.422;18.758;2022-07-23T07:54:35;98451.08;;;33.57;37.67
37904;BME280;23738;50.422;18.758;2022-07-23T07:57:01;98459.81;;;33.63;37.07
37904;BME280;23738;50.422;18.758;2022-07-23T07:59:27;98455.98;;;33.58;36.72
37904;BME280;23738;50.422;18.758;2022-07-23T08:01:53;98459.59;;;33.62;36.52
37904;BME280;23738;50.422;18.758;2022-07-23T08:04:18;98458.45;;;33.63;36.49
37904;BME280;23738;50.422;18.758;2022-07-23T08:06:44;98454.29;;;33.69;36.27
37904;BME280;23738;50.422;18.758;2022-07-23T08:09:10;98446.37;;;33.79;36.42
37904;BME280;23738;50.422;18.758;2022-07-23T08:11:36;98433.33;;;33.98;36.17
37904;BME280;23738;50.422;18.758;2022-07-23T08:14:02;98427.03;;;34.13;35.23
37904;BME280;23738;50.422;18.758;2022-07-23T08:16:28;98421.02;;;34.33;35.48
37904;BME280;23738;50.422;18.758;2022-07-23T08:18:54;98414.69;;;34.48;35.55
37904;BME280;23738;50.422;18.758;2022-07-23T08:21:20;98422.35;;;34.59;34.91
37904;BME280;23738;50.422;18.758;2022-07-23T08:23:46;98427.77;;;34.65;35.32
37904;BME280;23738;50.422;18.758;2022-07-23T08:26:12;98427.33;;;34.72;34.47
37904;BME280;23738;50.422;18.758;2022-07-23T08:28:38;98428.59;;;34.84;34.65
37904;BME280;23738;50.422;18.758;2022-07-23T08:31:04;98424.89;;;35.06;34.54
37904;BME280;23738;50.422;18.758;2022-07-23T08:33:34;98424.45;;;35.23;33.86
37904;BME280;23738;50.422;18.758;2022-07-23T08:36:02;98425.28;;;35.37;33.49
37904;BME280;23738;50.422;18.758;2022-07-23T08:38:28;98423.41;;;35.41;33.62
37904;BME280;23738;50.422;18.758;2022-07-23T08:40:55;98418.11;;;35.51;33.43
37904;BME280;23738;50.422;18.758;2022-07-23T08:43:26;98419.53;;;35.55;32.86
37904;BME280;23738;50.422;18.758;2022-07-23T08:45:55;98417.40;;;35.67;32.81
37904;BME280;23738;50.422;18.758;2022-07-23T08:48:24;98417.40;;;35.67;32.81
37904;BME280;23738;50.422;18.758;2022-07-23T08:50:56;98429.19;;;35.91;31.99
37904;BME280;23738;50.422;18.758;2022-07-23T08:53:24;98418.25;;;36.08;32.73
37904;BME280;23738;50.422;18.758;2022-07-23T08:55:53;98418.25;;;36.08;32.73
37904;BME280;23738;50.422;18.758;2022-07-23T08:58:21;98430.25;;;36.35;31.89
37904;BME280;23738;50.422;18.758;2022-07-23T09:00:48;98430.42;;;36.20;31.71
37904;BME280;23738;50.422;18.758;2022-07-23T09:03:24;98433.04;;;36.13;32.08
37904;BME280;23738;50.422;18.758;2022-07-23T09:05:53;98438.69;;;36.10;32.04
37904;BME280;23738;50.422;18.758;2022-07-23T09:08:23;98419.86;;;35.86;32.01
37904;BME280;23738;50.422;18.758;2022-07-23T09:10:57;98427.38;;;35.76;31.92
37904;BME280;23738;50.422;18.758;2022-07-23T09:16:26;98427.59;;;35.67;30.78
37904;BME280;23738;50.422;18.758;2022-07-23T09:19:03;98432.48;;;35.77;30.84
37904;BME280;23738;50.422;18.758;2022-07-23T09:21:34;98432.44;;;36.00;31.83
37904;BME280;23738;50.422;18.758;2022-07-23T09:24:06;98432.38;;;36.19;31.84
37904;BME280;23738;50.422;18.758;2022-07-23T09:26:43;98435.55;;;36.21;31.75
37904;BME280;23738;50.422;18.758;2022-07-23T09:29:23;98428.56;;;36.27;31.05
37904;BME280;23738;50.422;18.758;2022-07-23T09:32:01;98430.41;;;36.46;30.70
37904;BME280;23738;50.422;18.758;2022-07-23T09:34:31;98431.28;;;36.54;30.96
37904;BME280;23738;50.422;18.758;2022-07-23T09:37:14;98430.80;;;36.61;31.17
37904;BME280;23738;50.422;18.758;2022-07-23T09:39:43;98434.41;;;36.82;31.70
37904;BME280;23738;50.422;18.758;2022-07-23T09:42:18;98425.91;;;36.77;31.32
37904;BME280;23738;50.422;18.758;2022-07-23T09:44:53;98425.90;;;36.64;30.55
37904;BME280;23738;50.422;18.758;2022-07-23T09:47:18;98427.56;;;36.39;30.51
37904;BME280;23738;50.422;18.758;2022-07-23T09:50:03;98427.21;;;36.18;30.70
37904;BME280;23738;50.422;18.758;2022-07-23T09:52:48;98421.94;;;36.05;30.78
37904;BME280;23738;50.422;18.758;2022-07-23T09:55:16;98422.45;;;36.01;31.27
37904;BME280;23738;50.422;18.758;2022-07-23T09:57:43;98417.33;;;36.00;31.57
37904;BME280;23738;50.422;18.758;2022-07-23T10:00:11;98423.58;;;35.97;32.02
37904;BME280;23738;50.422;18.758;2022-07-23T10:02:39;98418.59;;;35.80;31.20
37904;BME280;23738;50.422;18.758;2022-07-23T10:05:06;98405.55;;;35.63;31.03
37904;BME280;23738;50.422;18.758;2022-07-23T10:07:37;98409.34;;;35.68;31.45
37904;BME280;23738;50.422;18.758;2022-07-23T10:10:05;98409.34;;;35.68;31.45
37904;BME280;23738;50.422;18.758;2022-07-23T10:12:32;98403.02;;;35.64;31.35
37904;BME280;23738;50.422;18.758;2022-07-23T10:15:11;98402.55;;;35.59;31.18
37904;BME280;23738;50.422;18.758;2022-07-23T10:17:37;98408.39;;;35.57;31.35
37904;BME280;23738;50.422;18.758;2022-07-23T10:20:04;98400.87;;;35.54;31.35
37904;BME280;23738;50.422;18.758;2022-07-23T10:22:33;98394.95;;;35.52;31.98
37904;BME280;23738;50.422;18.758;2022-07-23T10:36:58;98396.45;;;35.37;30.55
37904;BME280;23738;50.422;18.758;2022-07-23T10:39:34;98396.75;;;35.41;30.57
37904;BME280;23738;50.422;18.758;2022-07-23T10:42:12;98392.74;;;35.48;30.65
37904;BME280;23738;50.422;18.758;2022-07-23T10:44:41;98396.39;;;35.79;30.31
37904;BME280;23738;50.422;18.758;2022-07-23T10:47:09;98390.06;;;36.14;30.55
37904;BME280;23738;50.422;18.758;2022-07-23T10:49:36;98381.60;;;36.26;30.29
37904;BME280;23738;50.422;18.758;2022-07-23T10:54:49;98381.71;;;36.50;30.41
37904;BME280;23738;50.422;18.758;2022-07-23T10:57:26;98375.31;;;36.56;30.21
37904;BME280;23738;50.422;18.758;2022-07-23T11:02:36;98366.27;;;36.72;30.43
37904;BME280;23738;50.422;18.758;2022-07-23T11:05:06;98367.27;;;36.90;29.44
37904;BME280;23738;50.422;18.758;2022-07-23T11:07:34;98366.03;;;36.84;28.90
37904;BME280;23738;50.422;18.758;2022-07-23T11:10:01;98356.98;;;36.84;29.16
37904;BME280;23738;50.422;18.758;2022-07-23T11:17:39;98349.71;;;37.22;28.84
37904;BME280;23738;50.422;18.758;2022-07-23T11:20:21;98353.36;;;37.13;28.72
37904;BME280;23738;50.422;18.758;2022-07-23T11:22:50;98342.34;;;36.93;29.19
37904;BME280;23738;50.422;18.758;2022-07-23T11:25:29;98343.94;;;36.77;29.65
37904;BME280;23738;50.422;18.758;2022-07-23T11:28:16;98343.70;;;36.59;29.87
37904;BME280;23738;50.422;18.758;2022-07-23T11:30:42;98347.52;;;36.48;30.56
37904;BME280;23738;50.422;18.758;2022-07-23T11:33:16;98351.23;;;36.32;30.61
37904;BME280;23738;50.422;18.758;2022-07-23T11:35:45;98352.64;;;36.19;30.23
37904;BME280;23738;50.422;18.758;2022-07-23T11:38:18;98352.13;;;35.97;29.69
37904;BME280;23738;50.422;18.758;2022-07-23T11:40:53;98344.63;;;35.81;29.66
37904;BME280;23738;50.422;18.758;2022-07-23T11:43:21;98343.62;;;35.69;30.70
37904;BME280;23738;50.422;18.758;2022-07-23T11:45:57;98345.37;;;35.68;31.33
37904;BME280;23738;50.422;18.758;2022-07-23T11:48:26;98345.37;;;35.68;31.33
37904;BME280;23738;50.422;18.758;2022-07-23T11:50:55;98338.03;;;35.62;31.05
37904;BME280;23738;50.422;18.758;2022-07-23T11:53:30;98327.84;;;35.50;29.85
37904;BME280;23738;50.422;18.758;2022-07-23T11:56:06;98327.84;;;35.50;29.85
37904;BME280;23738;50.422;18.758;2022-07-23T11:58:34;98328.12;;;35.67;30.40
37904;BME280;23738;50.422;18.758;2022-07-23T12:00:59;98322.10;;;35.98;30.61
37904;BME280;23738;50.422;18.758;2022-07-23T12:03:26;98319.75;;;36.13;29.45
37904;BME280;23738;50.422;18.758;2022-07-23T12:05:57;98313.91;;;36.18;29.76
37904;BME280;23738;50.422;18.758;2022-07-23T12:08:24;98315.23;;;35.98;30.28
37904;BME280;23738;50.422;18.758;2022-07-23T12:10:50;98315.23;;;35.98;30.28
37904;BME280;23738;50.422;18.758;2022-07-23T12:13:18;98323.69;;;35.99;31.13
37904;BME280;23738;50.422;18.758;2022-07-23T12:15:47;98316.61;;;35.98;31.33
37904;BME280;23738;50.422;18.758;2022-07-23T12:18:21;98316.61;;;35.98;31.33
37904;BME280;23738;50.422;18.758;2022-07-23T12:20:48;98315.20;;;36.11;31.11
37904;BME280;23738;50.422;18.758;2022-07-23T12:23:17;98305.42;;;36.14;31.14
37904;BME280;23738;50.422;18.758;2022-07-23T12:25:48;98306.86;;;36.04;31.38
37904;BME280;23738;50.422;18.758;2022-07-23T12:28:18;98300.42;;;35.93;31.40
37904;BME280;23738;50.422;18.758;2022-07-23T12:30:52;98296.57;;;35.84;30.89
37904;BME280;23738;50.422;18.758;2022-07-23T12:33:23;98289.09;;;35.81;31.09
37904;BME280;23738;50.422;18.758;2022-07-23T12:35:53;98279.02;;;35.76;31.69
37904;BME280;23738;50.422;18.758;2022-07-23T12:38:21;98279.25;;;35.67;32.01
37904;BME280;23738;50.422;18.758;2022-07-23T12:40:51;98269.63;;;35.54;32.24
37904;BME280;23738;50.422;18.758;2022-07-23T12:43:24;98279.73;;;35.59;32.66
37904;BME280;23738;50.422;18.758;2022-07-23T12:46:09;98279.73;;;35.59;32.66
37904;BME280;23738;50.422;18.758;2022-07-23T12:51:22;98291.89;;;35.72;31.94
37904;BME280;23738;50.422;18.758;2022-07-23T12:54:07;98286.48;;;35.65;32.07
37904;BME280;23738;50.422;18.758;2022-07-23T12:56:38;98281.50;;;35.61;31.88
37904;BME280;23738;50.422;18.758;2022-07-23T12:59:11;98268.16;;;35.60;32.50
37904;BME280;23738;50.422;18.758;2022-07-23T13:01:42;98268.16;;;35.60;32.50
37904;BME280;23738;50.422;18.758;2022-07-23T13:04:17;98273.49;;;35.49;31.01
37904;BME280;23738;50.422;18.758;2022-07-23T13:09:25;98272.01;;;35.55;32.27
37904;BME280;23738;50.422;18.758;2022-07-23T13:11:50;98272.01;;;35.55;32.27
37904;BME280;23738;50.422;18.758;2022-07-23T13:14:18;98266.30;;;35.54;31.99
37904;BME280;23738;50.422;18.758;2022-07-23T13:16:46;98260.59;;;35.53;32.49
37904;BME280;23738;50.422;18.758;2022-07-23T13:19:14;98261.30;;;35.60;32.81
37904;BME280;23738;50.422;18.758;2022-07-23T13:21:41;98263.90;;;35.76;32.64
37904;BME280;23738;50.422;18.758;2022-07-23T13:24:08;98268.63;;;35.92;32.41